sensor_id;sensor_type;location;lat;lon;timestamp;pressure;altitude;pressure_sealevel;temperature;humidity
57412;BME280;43247;52.828;-8.980;2023-04-01T00:00:51;100444.37;;;10.80;86.84
57412;BME280;43247;52.828;-8.980;2023-04-01T00:01:50;100444.52;;;10.80;86.82
57412;BME280;43247;52.828;-8.980;2023-04-01T00:02:50;100446.84;;;10.81;86.86
57412;BME280;43247;52.828;-8.980;2023-04-01T00:03:50;100446.74;;;10.81;86.85
57412;BME280;43247;52.828;-8.980;2023-04-01T00:04:50;100447.88;;;10.81;86.83
57412;BME280;43247;52.828;-8.980;2023-04-01T00:05:51;100449.06;;;10.81;86.75
57412;BME280;43247;52.828;-8.980;2023-04-01T00:06:51;100448.96;;;10.81;86.77
57412;BME280;43247;52.828;-8.980;2023-04-01T00:07:51;100448.74;;;10.82;86.79
57412;BME280;43247;52.828;-8.980;2023-04-01T00:08:51;100449.32;;;10.81;86.83
57412;BME280;43247;52.828;-8.980;2023-04-01T00:09:51;100448.50;;;10.81;86.85
57412;BME280;43247;52.828;-8.980;2023-04-01T00:10:52;100450.42;;;10.81;86.82
57412;BME280;43247;52.828;-8.980;2023-04-01T00:11:52;100448.54;;;10.81;86.75
57412;BME280;43247;52.828;-8.980;2023-04-01T00:12:52;100446.51;;;10.81;86.75
57412;BME280;43247;52.828;-8.980;2023-04-01T00:13:52;100448.79;;;10.81;86.85
57412;BME280;43247;52.828;-8.980;2023-04-01T00:14:52;100448.19;;;10.81;86.75
57412;BME280;43247;52.828;-8.980;2023-04-01T00:15:53;100447.50;;;10.81;86.76
57412;BME280;43247;52.828;-8.980;2023-04-01T00:16:53;100443.99;;;10.81;86.84
57412;BME280;43247;52.828;-8.980;2023-04-01T00:17:53;100442.93;;;10.80;86.78
57412;BME280;43247;52.828;-8.980;2023-04-01T00:18:53;100441.31;;;10.80;86.80
57412;BME280;43247;52.828;-8.980;2023-04-01T00:19:55;100444.58;;;10.80;86.73
57412;BME280;43247;52.828;-8.980;2023-04-01T00:20:54;100445.09;;;10.80;86.84
57412;BME280;43247;52.828;-8.980;2023-04-01T00:21:54;100444.35;;;10.80;86.90
57412;BME280;43247;52.828;-8.980;2023-04-01T00:22:54;100445.84;;;10.80;86.85
57412;BME280;43247;52.828;-8.980;2023-04-01T00:23:54;100445.83;;;10.80;86.80
57412;BME280;43247;52.828;-8.980;2023-04-01T00:24:55;100448.07;;;10.80;86.80
57412;BME280;43247;52.828;-8.980;2023-04-01T00:25:55;100449.93;;;10.80;86.91
57412;BME280;43247;52.828;-8.980;2023-04-01T00:26:55;100449.60;;;10.80;86.84
57412;BME280;43247;52.828;-8.980;2023-04-01T00:27:56;100448.58;;;10.79;86.83
57412;BME280;43247;52.828;-8.980;2023-04-01T00:28:56;100448.41;;;10.79;86.77
57412;BME280;43247;52.828;-8.980;2023-04-01T00:29:57;100450.08;;;10.79;86.77
57412;BME280;43247;52.828;-8.980;2023-04-01T00:30:57;100448.25;;;10.78;86.78
57412;BME280;43247;52.828;-8.980;2023-04-01T00:31:58;100449.06;;;10.78;86.75
57412;BME280;43247;52.828;-8.980;2023-04-01T00:32:58;100447.98;;;10.78;86.74
57412;BME280;43247;52.828;-8.980;2023-04-01T00:33:58;100449.47;;;10.78;86.68
57412;BME280;43247;52.828;-8.980;2023-04-01T00:34:59;100450.25;;;10.78;86.71
57412;BME280;43247;52.828;-8.980;2023-04-01T00:36:05;100450.68;;;10.77;86.74
57412;BME280;43247;52.828;-8.980;2023-04-01T00:36:59;100450.31;;;10.76;86.79
57412;BME280;43247;52.828;-8.980;2023-04-01T00:37:59;100449.81;;;10.76;86.71
57412;BME280;43247;52.828;-8.980;2023-04-01T00:38:59;100453.37;;;10.76;86.68
57412;BME280;43247;52.828;-8.980;2023-04-01T00:40:00;100453.04;;;10.75;86.71
57412;BME280;43247;52.828;-8.980;2023-04-01T00:41:00;100453.54;;;10.75;86.69
57412;BME280;43247;52.828;-8.980;2023-04-01T00:42:02;100453.06;;;10.75;86.71
57412;BME280;43247;52.828;-8.980;2023-04-01T00:43:01;100455.25;;;10.75;86.67
57412;BME280;43247;52.828;-8.980;2023-04-01T00:46:02;100460.19;;;10.74;86.64
57412;BME280;43247;52.828;-8.980;2023-04-01T00:47:02;100461.26;;;10.74;86.61
57412;BME280;43247;52.828;-8.980;2023-04-01T00:48:05;100460.17;;;10.73;86.62
57412;BME280;43247;52.828;-8.980;2023-04-01T00:49:02;100459.03;;;10.73;86.67
57412;BME280;43247;52.828;-8.980;2023-04-01T00:50:03;100460.34;;;10.73;86.66
57412;BME280;43247;52.828;-8.980;2023-04-01T00:51:06;100459.75;;;10.73;86.73
57412;BME280;43247;52.828;-8.980;2023-04-01T00:52:05;100458.36;;;10.73;86.67
57412;BME280;43247;52.828;-8.980;2023-04-01T00:53:05;100458.82;;;10.72;86.67
57412;BME280;43247;52.828;-8.980;2023-04-01T00:54:04;100459.88;;;10.73;86.67
57412;BME280;43247;52.828;-8.980;2023-04-01T00:55:05;100457.88;;;10.74;86.61
57412;BME280;43247;52.828;-8.980;2023-04-01T00:56:07;100461.27;;;10.74;86.61
57412;BME280;43247;52.828;-8.980;2023-04-01T00:57:07;100460.83;;;10.73;86.60
57412;BME280;43247;52.828;-8.980;2023-04-01T00:58:07;100460.88;;;10.72;86.78
57412;BME280;43247;52.828;-8.980;2023-04-01T00:59:08;100460.86;;;10.72;86.76
57412;BME280;43247;52.828;-8.980;2023-04-01T01:00:08;100461.47;;;10.71;86.64
57412;BME280;43247;52.828;-8.980;2023-04-01T01:01:06;100463.50;;;10.71;86.67
57412;BME280;43247;52.828;-8.980;2023-04-01T01:02:08;100462.87;;;10.72;86.73
57412;BME280;43247;52.828;-8.980;2023-04-01T01:03:05;100463.37;;;10.72;86.79
57412;BME280;43247;52.828;-8.980;2023-04-01T01:04:06;100460.92;;;10.71;86.76
57412;BME280;43247;52.828;-8.980;2023-04-01T01:05:06;100465.14;;;10.72;86.70
57412;BME280;43247;52.828;-8.980;2023-04-01T01:06:10;100465.52;;;10.71;86.74
57412;BME280;43247;52.828;-8.980;2023-04-01T01:07:14;100466.17;;;10.71;86.70
57412;BME280;43247;52.828;-8.980;2023-04-01T01:08:13;100466.56;;;10.71;86.70
57412;BME280;43247;52.828;-8.980;2023-04-01T01:09:12;100466.83;;;10.71;86.73
57412;BME280;43247;52.828;-8.980;2023-04-01T01:10:10;100466.23;;;10.70;86.73
57412;BME280;43247;52.828;-8.980;2023-04-01T01:11:08;100468.23;;;10.70;86.73
57412;BME280;43247;52.828;-8.980;2023-04-01T01:12:11;100468.57;;;10.70;86.71
57412;BME280;43247;52.828;-8.980;2023-04-01T01:13:11;100465.26;;;10.70;86.65
57412;BME280;43247;52.828;-8.980;2023-04-01T01:14:14;100468.28;;;10.70;86.77
57412;BME280;43247;52.828;-8.980;2023-04-01T01:15:13;100467.36;;;10.70;86.73
57412;BME280;43247;52.828;-8.980;2023-04-01T01:16:10;100466.48;;;10.70;86.70
57412;BME280;43247;52.828;-8.980;2023-04-01T01:17:13;100467.35;;;10.70;86.65
57412;BME280;43247;52.828;-8.980;2023-04-01T01:18:14;100467.41;;;10.70;86.65
57412;BME280;43247;52.828;-8.980;2023-04-01T01:19:19;100468.10;;;10.69;86.64
57412;BME280;43247;52.828;-8.980;2023-04-01T01:20:18;100467.75;;;10.69;86.58
57412;BME280;43247;52.828;-8.980;2023-04-01T01:22:21;100472.99;;;10.69;86.58
57412;BME280;43247;52.828;-8.980;2023-04-01T01:25:18;100475.17;;;10.69;86.53
57412;BME280;43247;52.828;-8.980;2023-04-01T01:27:11;100475.71;;;10.71;86.44
57412;BME280;43247;52.828;-8.980;2023-04-01T01:28:24;100475.14;;;10.69;86.34
57412;BME280;43247;52.828;-8.980;2023-04-01T01:30:20;100477.68;;;10.68;86.51
57412;BME280;43247;52.828;-8.980;2023-04-01T01:31:14;100477.66;;;10.68;86.48
57412;BME280;43247;52.828;-8.980;2023-04-01T01:32:17;100479.15;;;10.67;86.42
57412;BME280;43247;52.828;-8.980;2023-04-01T01:33:24;100477.98;;;10.67;86.46
57412;BME280;43247;52.828;-8.980;2023-04-01T01:34:15;100479.54;;;10.67;86.44
57412;BME280;43247;52.828;-8.980;2023-04-01T01:35:19;100480.82;;;10.67;86.45
57412;BME280;43247;52.828;-8.980;2023-04-01T01:36:14;100480.97;;;10.67;86.37
57412;BME280;43247;52.828;-8.980;2023-04-01T01:37:14;100480.49;;;10.66;86.44
57412;BME280;43247;52.828;-8.980;2023-04-01T01:38:14;100482.67;;;10.66;86.38
57412;BME280;43247;52.828;-8.980;2023-04-01T01:39:13;100483.68;;;10.66;86.39
57412;BME280;43247;52.828;-8.980;2023-04-01T01:40:13;100484.83;;;10.66;86.40
57412;BME280;43247;52.828;-8.980;2023-04-01T01:41:14;100487.76;;;10.66;86.34
57412;BME280;43247;52.828;-8.980;2023-04-01T01:42:15;100488.62;;;10.65;86.33
57412;BME280;43247;52.828;-8.980;2023-04-01T01:43:16;100490.61;;;10.65;86.33
57412;BME280;43247;52.828;-8.980;2023-04-01T01:44:14;100493.61;;;10.65;86.39
57412;BME280;43247;52.828;-8.980;2023-04-01T01:45:15;100493.48;;;10.64;86.44
57412;BME280;43247;52.828;-8.980;2023-04-01T01:46:17;100495.00;;;10.64;86.43
57412;BME280;43247;52.828;-8.980;2023-04-01T01:47:14;100497.18;;;10.64;86.41
57412;BME280;43247;52.828;-8.980;2023-04-01T01:48:15;100497.34;;;10.63;86.36
57412;BME280;43247;52.828;-8.980;2023-04-01T01:49:15;100499.08;;;10.64;86.32
57412;BME280;43247;52.828;-8.980;2023-04-01T01:50:15;100499.46;;;10.64;86.35
57412;BME280;43247;52.828;-8.980;2023-04-01T01:51:14;100495.27;;;10.63;86.36
57412;BME280;43247;52.828;-8.980;2023-04-01T01:52:16;100498.27;;;10.63;86.39
57412;BME280;43247;52.828;-8.980;2023-04-01T01:53:15;100496.17;;;10.63;86.37
57412;BME280;43247;52.828;-8.980;2023-04-01T01:54:17;100497.31;;;10.63;86.36
57412;BME280;43247;52.828;-8.980;2023-04-01T01:55:24;100495.82;;;10.64;86.32
57412;BME280;43247;52.828;-8.980;2023-04-01T01:56:17;100497.90;;;10.64;86.33
57412;BME280;43247;52.828;-8.980;2023-04-01T01:57:18;100494.91;;;10.63;86.32
57412;BME280;43247;52.828;-8.980;2023-04-01T01:58:19;100494.81;;;10.64;86.29
57412;BME280;43247;52.828;-8.980;2023-04-01T01:59:19;100496.12;;;10.63;86.34
57412;BME280;43247;52.828;-8.980;2023-04-01T02:00:18;100495.01;;;10.63;86.39
57412;BME280;43247;52.828;-8.980;2023-04-01T02:01:20;100494.81;;;10.63;86.39
57412;BME280;43247;52.828;-8.980;2023-04-01T02:02:17;100495.72;;;10.63;86.37
57412;BME280;43247;52.828;-8.980;2023-04-01T02:03:20;100496.69;;;10.64;86.40
57412;BME280;43247;52.828;-8.980;2023-04-01T02:04:18;100498.77;;;10.64;86.36
57412;BME280;43247;52.828;-8.980;2023-04-01T02:05:21;100498.32;;;10.64;86.33
57412;BME280;43247;52.828;-8.980;2023-04-01T02:06:21;100498.77;;;10.64;86.37
57412;BME280;43247;52.828;-8.980;2023-04-01T02:07:23;100501.13;;;10.64;86.36
57412;BME280;43247;52.828;-8.980;2023-04-01T02:08:22;100503.19;;;10.63;86.32
57412;BME280;43247;52.828;-8.980;2023-04-01T02:09:19;100505.79;;;10.63;86.29
57412;BME280;43247;52.828;-8.980;2023-04-01T02:10:21;100507.16;;;10.63;86.33
57412;BME280;43247;52.828;-8.980;2023-04-01T02:11:23;100507.71;;;10.63;86.39
57412;BME280;43247;52.828;-8.980;2023-04-01T02:12:22;100508.71;;;10.63;86.32
57412;BME280;43247;52.828;-8.980;2023-04-01T02:13:24;100507.76;;;10.62;86.36
57412;BME280;43247;52.828;-8.980;2023-04-01T02:14:22;100508.77;;;10.62;86.40
57412;BME280;43247;52.828;-8.980;2023-04-01T02:15:21;100507.79;;;10.61;86.32
57412;BME280;43247;52.828;-8.980;2023-04-01T02:16:23;100508.20;;;10.61;86.32
57412;BME280;43247;52.828;-8.980;2023-04-01T02:17:22;100509.17;;;10.62;86.31
57412;BME280;43247;52.828;-8.980;2023-04-01T02:18:21;100507.93;;;10.61;86.31
57412;BME280;43247;52.828;-8.980;2023-04-01T02:19:22;100507.80;;;10.60;86.28
57412;BME280;43247;52.828;-8.980;2023-04-01T02:20:23;100507.80;;;10.60;86.29
57412;BME280;43247;52.828;-8.980;2023-04-01T02:21:24;100507.22;;;10.60;86.29
57412;BME280;43247;52.828;-8.980;2023-04-01T02:22:24;100507.90;;;10.60;86.25
57412;BME280;43247;52.828;-8.980;2023-04-01T02:23:22;100508.37;;;10.59;86.35
57412;BME280;43247;52.828;-8.980;2023-04-01T02:24:23;100507.95;;;10.59;86.36
57412;BME280;43247;52.828;-8.980;2023-04-01T02:25:24;100508.09;;;10.59;86.33
57412;BME280;43247;52.828;-8.980;2023-04-01T02:26:22;100509.25;;;10.59;86.36
57412;BME280;43247;52.828;-8.980;2023-04-01T02:27:22;100508.56;;;10.58;86.39
57412;BME280;43247;52.828;-8.980;2023-04-01T02:28:23;100509.43;;;10.58;86.37
57412;BME280;43247;52.828;-8.980;2023-04-01T02:29:24;100513.23;;;10.58;86.34
57412;BME280;43247;52.828;-8.980;2023-04-01T02:30:23;100515.12;;;10.58;86.33
57412;BME280;43247;52.828;-8.980;2023-04-01T02:31:23;100517.03;;;10.57;86.35
57412;BME280;43247;52.828;-8.980;2023-04-01T02:32:23;100518.92;;;10.57;86.29
57412;BME280;43247;52.828;-8.980;2023-04-01T02:33:24;100518.64;;;10.58;86.22
57412;BME280;43247;52.828;-8.980;2023-04-01T02:34:24;100522.35;;;10.57;86.27
57412;BME280;43247;52.828;-8.980;2023-04-01T02:35:25;100521.09;;;10.57;86.21
57412;BME280;43247;52.828;-8.980;2023-04-01T02:36:24;100520.69;;;10.56;86.25
57412;BME280;43247;52.828;-8.980;2023-04-01T02:37:25;100522.08;;;10.56;86.27
57412;BME280;43247;52.828;-8.980;2023-04-01T02:38:25;100523.88;;;10.56;86.28
57412;BME280;43247;52.828;-8.980;2023-04-01T02:39:25;100526.14;;;10.56;86.25
57412;BME280;43247;52.828;-8.980;2023-04-01T02:40:25;100527.08;;;10.56;86.27
57412;BME280;43247;52.828;-8.980;2023-04-01T02:41:25;100526.53;;;10.56;86.24
57412;BME280;43247;52.828;-8.980;2023-04-01T02:42:25;100523.92;;;10.55;86.21
57412;BME280;43247;52.828;-8.980;2023-04-01T02:43:26;100526.02;;;10.55;86.20
57412;BME280;43247;52.828;-8.980;2023-04-01T02:44:26;100525.25;;;10.55;86.22
57412;BME280;43247;52.828;-8.980;2023-04-01T02:45:26;100526.57;;;10.54;86.26
57412;BME280;43247;52.828;-8.980;2023-04-01T02:46:26;100527.53;;;10.54;86.28
57412;BME280;43247;52.828;-8.980;2023-04-01T02:47:26;100528.37;;;10.54;86.24
57412;BME280;43247;52.828;-8.980;2023-04-01T02:48:26;100530.90;;;10.54;86.33
57412;BME280;43247;52.828;-8.980;2023-04-01T02:49:27;100530.34;;;10.54;86.32
57412;BME280;43247;52.828;-8.980;2023-04-01T02:50:27;100531.46;;;10.53;86.27
57412;BME280;43247;52.828;-8.980;2023-04-01T02:51:27;100534.68;;;10.53;86.22
57412;BME280;43247;52.828;-8.980;2023-04-01T02:52:28;100531.14;;;10.52;86.17
57412;BME280;43247;52.828;-8.980;2023-04-01T02:53:27;100531.99;;;10.52;86.26
57412;BME280;43247;52.828;-8.980;2023-04-01T02:54:27;100532.73;;;10.53;86.27
57412;BME280;43247;52.828;-8.980;2023-04-01T02:55:28;100534.51;;;10.53;86.40
57412;BME280;43247;52.828;-8.980;2023-04-01T02:56:28;100534.63;;;10.52;86.32
57412;BME280;43247;52.828;-8.980;2023-04-01T02:57:28;100534.68;;;10.52;86.31
57412;BME280;43247;52.828;-8.980;2023-04-01T02:58:28;100534.06;;;10.52;86.17
57412;BME280;43247;52.828;-8.980;2023-04-01T02:59:28;100535.78;;;10.52;86.31
57412;BME280;43247;52.828;-8.980;2023-04-01T03:00:28;100534.48;;;10.52;86.30
57412;BME280;43247;52.828;-8.980;2023-04-01T03:01:29;100537.18;;;10.52;86.31
57412;BME280;43247;52.828;-8.980;2023-04-01T03:02:29;100537.42;;;10.52;86.27
57412;BME280;43247;52.828;-8.980;2023-04-01T03:03:29;100535.66;;;10.52;86.22
57412;BME280;43247;52.828;-8.980;2023-04-01T03:04:29;100537.34;;;10.51;86.23
57412;BME280;43247;52.828;-8.980;2023-04-01T03:05:29;100536.03;;;10.50;86.29
57412;BME280;43247;52.828;-8.980;2023-04-01T03:06:29;100539.22;;;10.50;86.28
57412;BME280;43247;52.828;-8.980;2023-04-01T03:07:30;100542.64;;;10.50;86.30
57412;BME280;43247;52.828;-8.980;2023-04-01T03:08:30;100541.71;;;10.50;86.27
57412;BME280;43247;52.828;-8.980;2023-04-01T03:09:30;100542.20;;;10.50;86.24
57412;BME280;43247;52.828;-8.980;2023-04-01T03:10:30;100541.39;;;10.50;86.24
57412;BME280;43247;52.828;-8.980;2023-04-01T03:11:30;100546.87;;;10.50;86.30
57412;BME280;43247;52.828;-8.980;2023-04-01T03:12:31;100545.69;;;10.49;86.31
57412;BME280;43247;52.828;-8.980;2023-04-01T03:13:32;100548.71;;;10.50;86.30
57412;BME280;43247;52.828;-8.980;2023-04-01T03:14:31;100548.10;;;10.50;86.36
57412;BME280;43247;52.828;-8.980;2023-04-01T03:15:31;100549.07;;;10.50;86.42
57412;BME280;43247;52.828;-8.980;2023-04-01T03:16:32;100548.90;;;10.49;86.43
57412;BME280;43247;52.828;-8.980;2023-04-01T03:17:32;100547.82;;;10.49;86.40
57412;BME280;43247;52.828;-8.980;2023-04-01T03:18:32;100551.93;;;10.49;86.47
57412;BME280;43247;52.828;-8.980;2023-04-01T03:19:32;100550.65;;;10.48;86.50
57412;BME280;43247;52.828;-8.980;2023-04-01T03:20:32;100551.50;;;10.48;86.43
57412;BME280;43247;52.828;-8.980;2023-04-01T03:21:32;100553.49;;;10.48;86.43
57412;BME280;43247;52.828;-8.980;2023-04-01T03:22:33;100550.48;;;10.48;86.42
57412;BME280;43247;52.828;-8.980;2023-04-01T03:23:33;100551.47;;;10.48;86.36
57412;BME280;43247;52.828;-8.980;2023-04-01T03:24:33;100552.96;;;10.48;86.33
57412;BME280;43247;52.828;-8.980;2023-04-01T03:25:34;100554.75;;;10.47;86.42
57412;BME280;43247;52.828;-8.980;2023-04-01T03:26:34;100552.95;;;10.47;86.39
57412;BME280;43247;52.828;-8.980;2023-04-01T03:27:35;100552.36;;;10.47;86.34
57412;BME280;43247;52.828;-8.980;2023-04-01T03:28:35;100553.60;;;10.47;86.37
57412;BME280;43247;52.828;-8.980;2023-04-01T03:29:35;100552.47;;;10.46;86.30
57412;BME280;43247;52.828;-8.980;2023-04-01T03:30:35;100556.09;;;10.46;86.28
57412;BME280;43247;52.828;-8.980;2023-04-01T03:31:35;100560.18;;;10.46;86.29
57412;BME280;43247;52.828;-8.980;2023-04-01T03:32:35;100562.88;;;10.46;86.31
57412;BME280;43247;52.828;-8.980;2023-04-01T03:33:36;100566.51;;;10.46;86.26
57412;BME280;43247;52.828;-8.980;2023-04-01T03:34:36;100572.06;;;10.46;86.24
57412;BME280;43247;52.828;-8.980;2023-04-01T03:35:36;100574.08;;;10.45;86.21
57412;BME280;43247;52.828;-8.980;2023-04-01T03:36:36;100573.83;;;10.45;86.22
57412;BME280;43247;52.828;-8.980;2023-04-01T03:37:36;100575.25;;;10.44;86.20
57412;BME280;43247;52.828;-8.980;2023-04-01T03:38:37;100576.35;;;10.43;86.15
57412;BME280;43247;52.828;-8.980;2023-04-01T03:39:37;100577.81;;;10.43;86.09
57412;BME280;43247;52.828;-8.980;2023-04-01T03:40:37;100579.53;;;10.42;86.08
57412;BME280;43247;52.828;-8.980;2023-04-01T03:41:37;100581.81;;;10.42;86.09
57412;BME280;43247;52.828;-8.980;2023-04-01T03:42:37;100582.25;;;10.42;86.05
57412;BME280;43247;52.828;-8.980;2023-04-01T03:43:37;100585.20;;;10.41;86.03
57412;BME280;43247;52.828;-8.980;2023-04-01T03:44:38;100585.11;;;10.40;86.02
57412;BME280;43247;52.828;-8.980;2023-04-01T03:45:44;100588.03;;;10.39;85.96
57412;BME280;43247;52.828;-8.980;2023-04-01T03:46:38;100588.34;;;10.39;85.92
57412;BME280;43247;52.828;-8.980;2023-04-01T03:47:39;100587.85;;;10.38;85.88
57412;BME280;43247;52.828;-8.980;2023-04-01T03:48:38;100591.03;;;10.38;85.91
57412;BME280;43247;52.828;-8.980;2023-04-01T03:49:38;100589.48;;;10.37;85.85
57412;BME280;43247;52.828;-8.980;2023-04-01T03:50:39;100590.82;;;10.36;85.85
57412;BME280;43247;52.828;-8.980;2023-04-01T03:51:40;100589.83;;;10.36;85.86
57412;BME280;43247;52.828;-8.980;2023-04-01T03:52:40;100589.12;;;10.36;85.83
57412;BME280;43247;52.828;-8.980;2023-04-01T03:53:40;100594.38;;;10.36;85.78
57412;BME280;43247;52.828;-8.980;2023-04-01T03:54:40;100595.00;;;10.35;85.77
57412;BME280;43247;52.828;-8.980;2023-04-01T03:55:40;100595.53;;;10.35;85.74
57412;BME280;43247;52.828;-8.980;2023-04-01T03:56:40;100595.62;;;10.34;85.72
57412;BME280;43247;52.828;-8.980;2023-04-01T03:57:40;100596.04;;;10.34;85.71
57412;BME280;43247;52.828;-8.980;2023-04-01T03:58:41;100598.02;;;10.32;85.71
57412;BME280;43247;52.828;-8.980;2023-04-01T03:59:41;100598.21;;;10.32;85.64
57412;BME280;43247;52.828;-8.980;2023-04-01T04:00:41;100600.58;;;10.31;85.62
57412;BME280;43247;52.828;-8.980;2023-04-01T04:01:41;100602.26;;;10.31;85.62
57412;BME280;43247;52.828;-8.980;2023-04-01T04:02:41;100603.52;;;10.30;85.60
57412;BME280;43247;52.828;-8.980;2023-04-01T04:03:41;100602.98;;;10.29;85.63
57412;BME280;43247;52.828;-8.980;2023-04-01T04:04:42;100606.30;;;10.29;85.56
57412;BME280;43247;52.828;-8.980;2023-04-01T04:05:46;100607.76;;;10.29;85.54
57412;BME280;43247;52.828;-8.980;2023-04-01T04:06:42;100608.69;;;10.28;85.51
57412;BME280;43247;52.828;-8.980;2023-04-01T04:07:43;100606.53;;;10.27;85.55
57412;BME280;43247;52.828;-8.980;2023-04-01T04:08:43;100611.22;;;10.27;85.48
57412;BME280;43247;52.828;-8.980;2023-04-01T04:09:43;100611.76;;;10.26;85.48
57412;BME280;43247;52.828;-8.980;2023-04-01T04:10:44;100612.67;;;10.25;85.46
57412;BME280;43247;52.828;-8.980;2023-04-01T04:11:43;100614.55;;;10.24;85.46
57412;BME280;43247;52.828;-8.980;2023-04-01T04:12:44;100615.84;;;10.23;85.46
57412;BME280;43247;52.828;-8.980;2023-04-01T04:13:44;100618.73;;;10.23;85.42
57412;BME280;43247;52.828;-8.980;2023-04-01T04:14:44;100618.80;;;10.22;85.44
57412;BME280;43247;52.828;-8.980;2023-04-01T04:15:44;100621.89;;;10.22;85.48
57412;BME280;43247;52.828;-8.980;2023-04-01T04:16:45;100625.16;;;10.21;85.46
57412;BME280;43247;52.828;-8.980;2023-04-01T04:17:46;100627.61;;;10.21;85.51
57412;BME280;43247;52.828;-8.980;2023-04-01T04:18:45;100627.87;;;10.21;85.50
57412;BME280;43247;52.828;-8.980;2023-04-01T04:19:45;100627.86;;;10.20;85.42
57412;BME280;43247;52.828;-8.980;2023-04-01T04:20:46;100628.89;;;10.20;85.44
57412;BME280;43247;52.828;-8.980;2023-04-01T04:21:46;100633.96;;;10.19;85.44
57412;BME280;43247;52.828;-8.980;2023-04-01T04:22:46;100634.55;;;10.19;85.45
57412;BME280;43247;52.828;-8.980;2023-04-01T04:23:47;100636.76;;;10.19;85.42
57412;BME280;43247;52.828;-8.980;2023-04-01T04:24:47;100640.84;;;10.18;85.42
57412;BME280;43247;52.828;-8.980;2023-04-01T04:25:53;100644.81;;;10.18;85.42
57412;BME280;43247;52.828;-8.980;2023-04-01T04:26:47;100642.98;;;10.18;85.42
57412;BME280;43247;52.828;-8.980;2023-04-01T04:27:47;100644.16;;;10.17;85.41
57412;BME280;43247;52.828;-8.980;2023-04-01T04:28:47;100645.21;;;10.17;85.39
57412;BME280;43247;52.828;-8.980;2023-04-01T04:29:48;100646.35;;;10.17;85.38
57412;BME280;43247;52.828;-8.980;2023-04-01T04:30:48;100649.49;;;10.17;85.42
57412;BME280;43247;52.828;-8.980;2023-04-01T04:31:48;100649.59;;;10.17;85.38
57412;BME280;43247;52.828;-8.980;2023-04-01T04:32:48;100652.27;;;10.16;85.36
57412;BME280;43247;52.828;-8.980;2023-04-01T04:33:48;100656.77;;;10.16;85.36
57412;BME280;43247;52.828;-8.980;2023-04-01T04:34:48;100658.67;;;10.16;85.33
57412;BME280;43247;52.828;-8.980;2023-04-01T04:35:49;100661.54;;;10.15;85.35
57412;BME280;43247;52.828;-8.980;2023-04-01T04:36:49;100663.98;;;10.16;85.31
57412;BME280;43247;52.828;-8.980;2023-04-01T04:37:49;100666.54;;;10.16;85.30
57412;BME280;43247;52.828;-8.980;2023-04-01T04:38:49;100665.42;;;10.15;85.36
57412;BME280;43247;52.828;-8.980;2023-04-01T04:39:49;100669.54;;;10.15;85.35
57412;BME280;43247;52.828;-8.980;2023-04-01T04:40:50;100671.05;;;10.15;85.35
57412;BME280;43247;52.828;-8.980;2023-04-01T04:41:50;100673.34;;;10.14;85.33
57412;BME280;43247;52.828;-8.980;2023-04-01T04:42:50;100674.65;;;10.15;85.38
57412;BME280;43247;52.828;-8.980;2023-04-01T04:43:52;100678.73;;;10.14;85.39
57412;BME280;43247;52.828;-8.980;2023-04-01T04:44:50;100679.58;;;10.14;85.43
57412;BME280;43247;52.828;-8.980;2023-04-01T04:45:50;100682.31;;;10.14;85.40
57412;BME280;43247;52.828;-8.980;2023-04-01T04:46:50;100683.84;;;10.14;85.38
57412;BME280;43247;52.828;-8.980;2023-04-01T04:47:51;100686.15;;;10.13;85.44
57412;BME280;43247;52.828;-8.980;2023-04-01T04:48:51;100688.19;;;10.13;85.48
57412;BME280;43247;52.828;-8.980;2023-04-01T04:49:52;100691.81;;;10.13;85.47
57412;BME280;43247;52.828;-8.980;2023-04-01T04:50:52;100693.40;;;10.13;85.51
57412;BME280;43247;52.828;-8.980;2023-04-01T04:51:52;100698.60;;;10.14;85.52
57412;BME280;43247;52.828;-8.980;2023-04-01T04:52:52;100699.42;;;10.13;85.55
57412;BME280;43247;52.828;-8.980;2023-04-01T04:53:52;100703.55;;;10.14;85.58
57412;BME280;43247;52.828;-8.980;2023-04-01T04:54:52;100704.35;;;10.14;85.55
57412;BME280;43247;52.828;-8.980;2023-04-01T04:55:53;100705.79;;;10.14;85.55
57412;BME280;43247;52.828;-8.980;2023-04-01T04:56:53;100707.74;;;10.15;85.55
57412;BME280;43247;52.828;-8.980;2023-04-01T04:57:53;100709.72;;;10.15;85.54
57412;BME280;43247;52.828;-8.980;2023-04-01T04:58:54;100710.13;;;10.14;85.56
57412;BME280;43247;52.828;-8.980;2023-04-01T04:59:54;100711.09;;;10.15;85.61
57412;BME280;43247;52.828;-8.980;2023-04-01T05:00:54;100711.24;;;10.15;85.62
57412;BME280;43247;52.828;-8.980;2023-04-01T05:01:55;100713.41;;;10.15;85.61
57412;BME280;43247;52.828;-8.980;2023-04-01T05:02:55;100713.25;;;10.15;85.61
57412;BME280;43247;52.828;-8.980;2023-04-01T05:03:55;100714.02;;;10.15;85.67
57412;BME280;43247;52.828;-8.980;2023-04-01T05:04:55;100714.33;;;10.15;85.65
57412;BME280;43247;52.828;-8.980;2023-04-01T05:05:55;100715.75;;;10.15;85.67
57412;BME280;43247;52.828;-8.980;2023-04-01T05:06:56;100715.05;;;10.15;85.69
57412;BME280;43247;52.828;-8.980;2023-04-01T05:07:56;100717.66;;;10.15;85.68
57412;BME280;43247;52.828;-8.980;2023-04-01T05:08:56;100719.69;;;10.15;85.64
57412;BME280;43247;52.828;-8.980;2023-04-01T05:09:57;100722.50;;;10.15;85.63
57412;BME280;43247;52.828;-8.980;2023-04-01T05:10:57;100723.22;;;10.16;85.68
57412;BME280;43247;52.828;-8.980;2023-04-01T05:11:57;100725.73;;;10.17;85.69
57412;BME280;43247;52.828;-8.980;2023-04-01T05:12:58;100726.76;;;10.16;85.70
57412;BME280;43247;52.828;-8.980;2023-04-01T05:13:57;100730.67;;;10.17;85.74
57412;BME280;43247;52.828;-8.980;2023-04-01T05:14:57;100732.82;;;10.17;85.74
57412;BME280;43247;52.828;-8.980;2023-04-01T05:15:58;100733.93;;;10.17;85.73
57412;BME280;43247;52.828;-8.980;2023-04-01T05:16:58;100737.41;;;10.18;85.70
57412;BME280;43247;52.828;-8.980;2023-04-01T05:17:58;100741.18;;;10.18;85.68